sensor_id;sensor_type;location;lat;lon;timestamp;P1;durP1;ratioP1;P2;durP2;ratioP2
23768;SDS011;12064;50.890;5.424;2023-06-04T00:00:43;0.90;;;0.90;;
23768;SDS011;12064;50.890;5.424;2023-06-04T00:09:34;0.77;;;0.77;;
23768;SDS011;12064;50.890;5.424;2023-06-04T00:18:25;0.77;;;0.77;;
23768;SDS011;12064;50.890;5.424;2023-06-04T00:27:15;0.80;;;0.80;;
23768;SDS011;12064;50.890;5.424;2023-06-04T00:36:06;0.93;;;0.93;;
23768;SDS011;12064;50.890;5.424;2023-06-04T00:44:58;1.15;;;0.80;;
23768;SDS011;12064;50.890;5.424;2023-06-04T00:53:49;0.90;;;0.90;;
23768;SDS011;12064;50.890;5.424;2023-06-04T01:02:40;0.80;;;0.80;;
23768;SDS011;12064;50.890;5.424;2023-06-04T01:11:38;0.80;;;0.80;;
23768;SDS011;12064;50.890;5.424;2023-06-04T01:20:33;0.60;;;0.60;;
23768;SDS011;12064;50.890;5.424;2023-06-04T01:29:36;0.80;;;0.80;;
23768;SDS011;12064;50.890;5.424;2023-06-04T01:38:27;0.85;;;0.85;;
23768;SDS011;12064;50.890;5.424;2023-06-04T01:47:17;0.90;;;0.90;;
23768;SDS011;12064;50.890;5.424;2023-06-04T01:56:08;0.70;;;0.70;;
23768;SDS011;12064;50.890;5.424;2023-06-04T02:04:59;0.83;;;0.83;;
23768;SDS011;12064;50.890;5.424;2023-06-04T02:13:49;1.00;;;1.00;;
23768;SDS011;12064;50.890;5.424;2023-06-04T02:22:40;0.90;;;0.90;;
23768;SDS011;12064;50.890;5.424;2023-06-04T02:31:31;0.80;;;0.80;;
23768;SDS011;12064;50.890;5.424;2023-06-04T02:40:21;0.80;;;0.80;;
23768;SDS011;12064;50.890;5.424;2023-06-04T02:49:12;0.90;;;0.90;;
23768;SDS011;12064;50.890;5.424;2023-06-04T02:58:03;0.90;;;0.90;;
23768;SDS011;12064;50.890;5.424;2023-06-04T03:06:54;0.70;;;0.70;;
23768;SDS011;12064;50.890;5.424;2023-06-04T03:15:47;0.75;;;0.75;;
23768;SDS011;12064;50.890;5.424;2023-06-04T03:24:39;0.93;;;0.93;;
23768;SDS011;12064;50.890;5.424;2023-06-04T03:33:31;0.80;;;0.80;;
23768;SDS011;12064;50.890;5.424;2023-06-04T03:42:21;0.80;;;0.80;;
23768;SDS011;12064;50.890;5.424;2023-06-04T03:51:12;1.07;;;0.80;;
23768;SDS011;12064;50.890;5.424;2023-06-04T04:00:03;0.90;;;0.90;;
23768;SDS011;12064;50.890;5.424;2023-06-04T04:08:55;0.60;;;0.60;;
23768;SDS011;12064;50.890;5.424;2023-06-04T04:17:46;0.60;;;0.60;;
23768;SDS011;12064;50.890;5.424;2023-06-04T04:26:37;0.80;;;0.80;;
23768;SDS011;12064;50.890;5.424;2023-06-04T04:35:27;0.80;;;0.80;;
23768;SDS011;12064;50.890;5.424;2023-06-04T04:44:19;0.80;;;0.80;;
23768;SDS011;12064;50.890;5.424;2023-06-04T04:53:10;0.90;;;0.90;;
23768;SDS011;12064;50.890;5.424;2023-06-04T05:02:00;0.77;;;0.77;;
23768;SDS011;12064;50.890;5.424;2023-06-04T05:10:52;0.77;;;0.77;;
23768;SDS011;12064;50.890;5.424;2023-06-04T05:19:43;0.90;;;0.90;;
23768;SDS011;12064;50.890;5.424;2023-06-04T05:28:33;0.90;;;0.90;;
23768;SDS011;12064;50.890;5.424;2023-06-04T05:37:24;0.90;;;0.90;;
23768;SDS011;12064;50.890;5.424;2023-06-04T05:46:18;0.80;;;0.80;;
23768;SDS011;12064;50.890;5.424;2023-06-04T05:55:09;1.10;;;1.00;;
23768;SDS011;12064;50.890;5.424;2023-06-04T06:04:00;0.80;;;0.80;;
23768;SDS011;12064;50.890;5.424;2023-06-04T06:12:50;0.70;;;0.70;;
23768;SDS011;12064;50.890;5.424;2023-06-04T06:21:41;0.80;;;0.80;;
23768;SDS011;12064;50.890;5.424;2023-06-04T06:30:32;0.90;;;0.90;;
23768;SDS011;12064;50.890;5.424;2023-06-04T06:39:23;0.82;;;0.82;;
23768;SDS011;12064;50.890;5.424;2023-06-04T06:48:13;0.75;;;0.75;;
23768;SDS011;12064;50.890;5.424;2023-06-04T06:57:04;0.90;;;0.90;;
23768;SDS011;12064;50.890;5.424;2023-06-04T07:05:58;0.80;;;0.80;;
23768;SDS011;12064;50.890;5.424;2023-06-04T07:14:50;0.80;;;0.80;;
23768;SDS011;12064;50.890;5.424;2023-06-04T07:23:41;0.70;;;0.70;;
23768;SDS011;12064;50.890;5.424;2023-06-04T07:32:31;0.80;;;0.80;;
23768;SDS011;12064;50.890;5.424;2023-06-04T07:41:22;0.80;;;0.80;;
23768;SDS011;12064;50.890;5.424;2023-06-04T07:50:13;0.95;;;0.90;;
23768;SDS011;12064;50.890;5.424;2023-06-04T07:59:03;0.95;;;0.90;;
23768;SDS011;12064;50.890;5.424;2023-06-04T08:07:54;0.70;;;0.70;;
23768;SDS011;12064;50.890;5.424;2023-06-04T08:16:45;0.70;;;0.70;;
23768;SDS011;12064;50.890;5.424;2023-06-04T08:25:36;0.80;;;0.80;;
23768;SDS011;12064;50.890;5.424;2023-06-04T08:34:26;0.70;;;0.70;;
23768;SDS011;12064;50.890;5.424;2023-06-04T08:43:17;0.80;;;0.80;;
23768;SDS011;12064;50.890;5.424;2023-06-04T08:52:09;0.80;;;0.80;;
23768;SDS011;12064;50.890;5.424;2023-06-04T09:01:00;0.70;;;0.70;;
23768;SDS011;12064;50.890;5.424;2023-06-04T09:09:51;0.70;;;0.70;;
23768;SDS011;12064;50.890;5.424;2023-06-04T09:18:43;0.80;;;0.80;;
23768;SDS011;12064;50.890;5.424;2023-06-04T09:27:38;0.60;;;0.60;;
23768;SDS011;12064;50.890;5.424;2023-06-04T09:36:30;0.70;;;0.70;;
23768;SDS011;12064;50.890;5.424;2023-06-04T09:45:30;0.68;;;0.68;;
23768;SDS011;12064;50.890;5.424;2023-06-04T09:54:22;0.80;;;0.80;;
23768;SDS011;12064;50.890;5.424;2023-06-04T10:03:24;0.70;;;0.70;;
23768;SDS011;12064;50.890;5.424;2023-06-04T10:12:16;0.65;;;0.65;;
23768;SDS011;12064;50.890;5.424;2023-06-04T10:21:15;0.60;;;0.60;;
23768;SDS011;12064;50.890;5.424;2023-06-04T10:30:08;0.80;;;0.80;;
23768;SDS011;12064;50.890;5.424;2023-06-04T10:38:59;0.85;;;0.85;;
23768;SDS011;12064;50.890;5.424;2023-06-04T10:47:58;0.63;;;0.63;;
23768;SDS011;12064;50.890;5.424;2023-06-04T10:56:53;0.75;;;0.75;;
23768;SDS011;12064;50.890;5.424;2023-06-04T11:05:46;0.60;;;0.60;;
23768;SDS011;12064;50.890;5.424;2023-06-04T11:14:37;0.70;;;0.70;;
23768;SDS011;12064;50.890;5.424;2023-06-04T11:23:28;0.70;;;0.70;;
23768;SDS011;12064;50.890;5.424;2023-06-04T11:32:23;0.80;;;0.80;;
23768;SDS011;12064;50.890;5.424;2023-06-04T11:41:14;0.60;;;0.60;;
23768;SDS011;12064;50.890;5.424;2023-06-04T11:50:05;0.63;;;0.63;;
23768;SDS011;12064;50.890;5.424;2023-06-04T11:58:57;0.65;;;0.65;;
23768;SDS011;12064;50.890;5.424;2023-06-04T12:07:48;0.65;;;0.65;;
23768;SDS011;12064;50.890;5.424;2023-06-04T12:16:42;0.80;;;0.80;;
23768;SDS011;12064;50.890;5.424;2023-06-04T12:25:33;0.70;;;0.70;;
23768;SDS011;12064;50.890;5.424;2023-06-04T12:34:24;0.70;;;0.70;;
23768;SDS011;12064;50.890;5.424;2023-06-04T12:43:15;0.88;;;0.88;;
23768;SDS011;12064;50.890;5.424;2023-06-04T12:52:06;0.63;;;0.63;;
23768;SDS011;12064;50.890;5.424;2023-06-04T13:00:58;0.80;;;0.80;;
23768;SDS011;12064;50.890;5.424;2023-06-04T13:09:48;0.70;;;0.70;;
23768;SDS011;12064;50.890;5.424;2023-06-04T13:18:39;0.57;;;0.57;;
23768;SDS011;12064;50.890;5.424;2023-06-04T13:27:30;0.70;;;0.70;;
23768;SDS011;12064;50.890;5.424;2023-06-04T13:36:21;1.90;;;0.98;;
23768;SDS011;12064;50.890;5.424;2023-06-04T13:45:11;1.00;;;0.90;;
23768;SDS011;12064;50.890;5.424;2023-06-04T13:54:02;0.98;;;0.88;;
23768;SDS011;12064;50.890;5.424;2023-06-04T14:02:53;1.17;;;0.80;;
23768;SDS011;12064;50.890;5.424;2023-06-04T14:11:45;0.90;;;0.82;;
23768;SDS011;12064;50.890;5.424;2023-06-04T14:20:40;2.70;;;0.88;;
23768;SDS011;12064;50.890;5.424;2023-06-04T14:29:30;1.63;;;0.90;;
23768;SDS011;12064;50.890;5.424;2023-06-04T14:38:21;0.80;;;0.80;;
23768;SDS011;12064;50.890;5.424;2023-06-04T14:47:12;1.70;;;0.73;;
23768;SDS011;12064;50.890;5.424;2023-06-04T14:56:02;1.00;;;0.80;;
23768;SDS011;12064;50.890;5.424;2023-06-04T15:04:53;1.67;;;0.80;;
23768;SDS011;12064;50.890;5.424;2023-06-04T15:13:44;2.95;;;1.27;;
23768;SDS011;12064;50.890;5.424;2023-06-04T15:22:35;2.10;;;0.90;;
23768;SDS011;12064;50.890;5.424;2023-06-04T15:31:26;1.67;;;1.10;;
23768;SDS011;12064;50.890;5.424;2023-06-04T15:40:16;1.38;;;1.00;;
23768;SDS011;12064;50.890;5.424;2023-06-04T15:49:07;1.35;;;1.25;;
23768;SDS011;12064;50.890;5.424;2023-06-04T15:57:59;1.20;;;1.00;;
23768;SDS011;12064;50.890;5.424;2023-06-04T16:06:50;1.20;;;0.90;;
23768;SDS011;12064;50.890;5.424;2023-06-04T16:15:40;1.00;;;0.90;;
23768;SDS011;12064;50.890;5.424;2023-06-04T16:24:32;0.93;;;0.90;;
23768;SDS011;12064;50.890;5.424;2023-06-04T16:33:22;0.80;;;0.80;;
23768;SDS011;12064;50.890;5.424;2023-06-04T16:42:13;2.75;;;1.38;;
23768;SDS011;12064;50.890;5.424;2023-06-04T16:51:04;2.97;;;1.10;;
23768;SDS011;12064;50.890;5.424;2023-06-04T16:59:55;1.42;;;0.98;;
23768;SDS011;12064;50.890;5.424;2023-06-04T17:08:45;1.83;;;1.10;;
23768;SDS011;12064;50.890;5.424;2023-06-04T17:17:36;1.77;;;1.13;;
23768;SDS011;12064;50.890;5.424;2023-06-04T17:26:27;1.35;;;1.10;;
23768;SDS011;12064;50.890;5.424;2023-06-04T17:35:19;1.45;;;1.30;;
23768;SDS011;12064;50.890;5.424;2023-06-04T17:44:09;2.17;;;1.20;;
23768;SDS011;12064;50.890;5.424;2023-06-04T17:53:00;1.52;;;1.20;;
23768;SDS011;12064;50.890;5.424;2023-06-04T18:01:51;2.00;;;1.10;;
23768;SDS011;12064;50.890;5.424;2023-06-04T18:10:41;1.73;;;1.00;;
23768;SDS011;12064;50.890;5.424;2023-06-04T18:19:33;1.20;;;1.10;;
23768;SDS011;12064;50.890;5.424;2023-06-04T18:28:24;2.85;;;1.27;;
23768;SDS011;12064;50.890;5.424;2023-06-04T18:37:14;1.80;;;1.13;;
23768;SDS011;12064;50.890;5.424;2023-06-04T18:46:05;1.53;;;1.13;;
23768;SDS011;12064;50.890;5.424;2023-06-04T18:54:56;3.17;;;1.20;;
23768;SDS011;12064;50.890;5.424;2023-06-04T19:03:47;2.22;;;1.10;;
23768;SDS011;12064;50.890;5.424;2023-06-04T19:12:38;3.28;;;1.20;;
23768;SDS011;12064;50.890;5.424;2023-06-04T19:21:31;2.05;;;1.60;;
23768;SDS011;12064;50.890;5.424;2023-06-04T19:30:24;2.10;;;1.45;;
23768;SDS011;12064;50.890;5.424;2023-06-04T19:39:15;2.22;;;1.63;;
23768;SDS011;12064;50.890;5.424;2023-06-04T19:48:05;5.73;;;1.70;;
23768;SDS011;12064;50.890;5.424;2023-06-04T19:56:56;3.37;;;1.80;;
23768;SDS011;12064;50.890;5.424;2023-06-04T20:05:50;3.03;;;1.90;;
23768;SDS011;12064;50.890;5.424;2023-06-04T20:14:40;4.63;;;1.93;;
23768;SDS011;12064;50.890;5.424;2023-06-04T20:23:35;4.15;;;1.90;;
23768;SDS011;12064;50.890;5.424;2023-06-04T20:32:25;4.90;;;2.17;;
23768;SDS011;12064;50.890;5.424;2023-06-04T20:41:16;4.10;;;2.00;;
23768;SDS011;12064;50.890;5.424;2023-06-04T20:50:09;3.20;;;2.20;;
23768;SDS011;12064;50.890;5.424;2023-06-04T20:59:00;2.72;;;2.10;;
23768;SDS011;12064;50.890;5.424;2023-06-04T21:07:51;3.80;;;2.20;;
23768;SDS011;12064;50.890;5.424;2023-06-04T21:16:41;3.00;;;2.03;;
23768;SDS011;12064;50.890;5.424;2023-06-04T21:25:32;3.67;;;2.38;;
23768;SDS011;12064;50.890;5.424;2023-06-04T21:34:23;3.65;;;2.15;;
23768;SDS011;12064;50.890;5.424;2023-06-04T21:43:14;3.42;;;1.90;;
23768;SDS011;12064;50.890;5.424;2023-06-04T21:52:05;3.05;;;2.20;;
23768;SDS011;12064;50.890;5.424;2023-06-04T22:00:56;2.22;;;2.00;;
23768;SDS011;12064;50.890;5.424;2023-06-04T22:09:46;2.33;;;2.10;;
23768;SDS011;12064;50.890;5.424;2023-06-04T22:18:37;3.80;;;1.90;;
23768;SDS011;12064;50.890;5.424;2023-06-04T22:27:28;2.77;;;1.90;;
23768;SDS011;12064;50.890;5.424;2023-06-04T22:36:18;2.03;;;1.83;;
23768;SDS011;12064;50.890;5.424;2023-06-04T22:45:09;2.83;;;2.30;;
23768;SDS011;12064;50.890;5.424;2023-06-04T22:54:00;2.05;;;1.85;;
23768;SDS011;12064;50.890;5.424;2023-06-04T23:02:50;2.90;;;2.08;;
23768;SDS011;12064;50.890;5.424;2023-06-04T23:11:41;3.63;;;2.08;;
23768;SDS011;12064;50.890;5.424;2023-06-04T23:20:33;3.53;;;2.10;;
23768;SDS011;12064;50.890;5.424;2023-06-04T23:29:23;3.35;;;1.70;;
23768;SDS011;12064;50.890;5.424;2023-06-04T23:38:14;1.70;;;1.60;;
23768;SDS011;12064;50.890;5.424;2023-06-04T23:47:05;2.00;;;1.90;;
23768;SDS011;12064;50.890;5.424;2023-06-04T23:55:56;1.67;;;1.58;;
